HCF weather

Opcion Santa Fe III Heliport
Cuajimalpa, Distrito Federal, Mexico

Public forecast

Using degrees Celsius for public forecast. Weather courtesy of forecast.io.

METAR (pilot weather report)

Closest report is Licenciado Benito Juarez International Airport, 12.4 nm (23.0 km) ENE. Retrieved 2019/08/21 06:42 UTC (15 seconds ago):

MMMX 210642Z 30007KT 9SM SCT200 15/09 A3034 NOSIG RMK 8/008 HZY AC

TAF (pilot weather forecast)

Closest forecast is Licenciado Benito Juarez International Airport, 12.4 nm (23.0 km) ENE. Retrieved 2019/08/21 06:34 UTC (8 minutes ago):

TAF MMMX 210428Z 2106/2212 02005KT P6SM SCT020 SCT080 SCT200 TX25/2121Z TN15/2112Z FM211800 08010KT P6SM SCT030 SCT200 TEMPO 2122/2202 4SM TSRA BKN020CB